sensor_id;sensor_type;location;lat;lon;timestamp;P1;durP1;ratioP1;P2;durP2;ratioP2
77531;SDS011;70100;44.486;0.266;2023-11-22T00:04:00;4.47;;;2.10;;
77531;SDS011;70100;44.486;0.266;2023-11-22T00:09:33;7.33;;;2.27;;
77531;SDS011;70100;44.486;0.266;2023-11-22T00:15:07;4.27;;;2.40;;
77531;SDS011;70100;44.486;0.266;2023-11-22T00:20:38;6.50;;;2.80;;
77531;SDS011;70100;44.486;0.266;2023-11-22T00:26:11;3.10;;;2.27;;
77531;SDS011;70100;44.486;0.266;2023-11-22T00:31:45;6.97;;;2.20;;
77531;SDS011;70100;44.486;0.266;2023-11-22T00:37:16;2.87;;;1.73;;
77531;SDS011;70100;44.486;0.266;2023-11-22T00:42:48;4.73;;;2.40;;
77531;SDS011;70100;44.486;0.266;2023-11-22T00:48:21;3.73;;;1.53;;
77531;SDS011;70100;44.486;0.266;2023-11-22T00:53:55;4.27;;;2.23;;
77531;SDS011;70100;44.486;0.266;2023-11-22T00:59:27;3.93;;;2.10;;
77531;SDS011;70100;44.486;0.266;2023-11-22T01:04:59;4.70;;;2.10;;
77531;SDS011;70100;44.486;0.266;2023-11-22T01:10:31;8.37;;;3.90;;
77531;SDS011;70100;44.486;0.266;2023-11-22T01:16:04;6.77;;;2.63;;
77531;SDS011;70100;44.486;0.266;2023-11-22T01:21:36;7.40;;;4.07;;
77531;SDS011;70100;44.486;0.266;2023-11-22T01:27:10;3.63;;;1.80;;
77531;SDS011;70100;44.486;0.266;2023-11-22T01:32:42;3.93;;;2.87;;
77531;SDS011;70100;44.486;0.266;2023-11-22T01:38:15;5.47;;;2.83;;
77531;SDS011;70100;44.486;0.266;2023-11-22T01:43:48;5.73;;;3.93;;
77531;SDS011;70100;44.486;0.266;2023-11-22T01:49:22;4.03;;;1.97;;
77531;SDS011;70100;44.486;0.266;2023-11-22T01:54:55;3.70;;;2.40;;
77531;SDS011;70100;44.486;0.266;2023-11-22T02:00:28;4.17;;;2.07;;
77531;SDS011;70100;44.486;0.266;2023-11-22T02:06:00;4.37;;;2.13;;
77531;SDS011;70100;44.486;0.266;2023-11-22T02:11:33;5.10;;;2.57;;
77531;SDS011;70100;44.486;0.266;2023-11-22T02:17:05;2.43;;;1.97;;
77531;SDS011;70100;44.486;0.266;2023-11-22T02:22:43;5.67;;;1.80;;
77531;SDS011;70100;44.486;0.266;2023-11-22T02:28:12;3.17;;;2.20;;
77531;SDS011;70100;44.486;0.266;2023-11-22T02:33:44;4.37;;;2.73;;
77531;SDS011;70100;44.486;0.266;2023-11-22T02:39:17;7.23;;;3.37;;
77531;SDS011;70100;44.486;0.266;2023-11-22T02:44:51;6.37;;;2.50;;
77531;SDS011;70100;44.486;0.266;2023-11-22T02:50:23;4.67;;;2.60;;
77531;SDS011;70100;44.486;0.266;2023-11-22T02:55:59;-1.00;;;-1.00;;
77531;SDS011;70100;44.486;0.266;2023-11-22T03:01:29;9.80;;;3.33;;
77531;SDS011;70100;44.486;0.266;2023-11-22T03:07:02;7.27;;;3.47;;
77531;SDS011;70100;44.486;0.266;2023-11-22T03:12:34;4.47;;;2.20;;
77531;SDS011;70100;44.486;0.266;2023-11-22T03:18:07;9.10;;;4.37;;
77531;SDS011;70100;44.486;0.266;2023-11-22T03:23:41;3.07;;;2.00;;
77531;SDS011;70100;44.486;0.266;2023-11-22T03:29:14;3.90;;;2.17;;
77531;SDS011;70100;44.486;0.266;2023-11-22T03:34:47;5.63;;;2.37;;
77531;SDS011;70100;44.486;0.266;2023-11-22T03:40:20;5.00;;;1.67;;
77531;SDS011;70100;44.486;0.266;2023-11-22T03:45:52;7.27;;;3.17;;
77531;SDS011;70100;44.486;0.266;2023-11-22T03:51:25;5.00;;;1.97;;
77531;SDS011;70100;44.486;0.266;2023-11-22T03:56:57;6.97;;;2.20;;
77531;SDS011;70100;44.486;0.266;2023-11-22T04:02:30;2.40;;;1.60;;
77531;SDS011;70100;44.486;0.266;2023-11-22T04:08:04;-1.00;;;-1.00;;
77531;SDS011;70100;44.486;0.266;2023-11-22T04:13:37;15.43;;;5.57;;
77531;SDS011;70100;44.486;0.266;2023-11-22T04:19:10;6.80;;;2.33;;
77531;SDS011;70100;44.486;0.266;2023-11-22T04:24:43;18.77;;;5.43;;
77531;SDS011;70100;44.486;0.266;2023-11-22T04:30:17;2.23;;;1.37;;
77531;SDS011;70100;44.486;0.266;2023-11-22T04:35:48;8.03;;;2.50;;
77531;SDS011;70100;44.486;0.266;2023-11-22T04:41:20;6.73;;;1.97;;
77531;SDS011;70100;44.486;0.266;2023-11-22T04:46:53;6.97;;;1.77;;
77531;SDS011;70100;44.486;0.266;2023-11-22T04:52:26;4.77;;;2.50;;
77531;SDS011;70100;44.486;0.266;2023-11-22T04:57:59;4.23;;;1.93;;
77531;SDS011;70100;44.486;0.266;2023-11-22T05:03:31;8.03;;;2.60;;
77531;SDS011;70100;44.486;0.266;2023-11-22T05:09:04;3.43;;;2.57;;
77531;SDS011;70100;44.486;0.266;2023-11-22T05:14:37;7.80;;;2.70;;
77531;SDS011;70100;44.486;0.266;2023-11-22T05:20:10;4.57;;;2.17;;
77531;SDS011;70100;44.486;0.266;2023-11-22T05:25:43;4.83;;;2.60;;
77531;SDS011;70100;44.486;0.266;2023-11-22T05:42:20;4.50;;;2.40;;
77531;SDS011;70100;44.486;0.266;2023-11-22T05:47:52;5.03;;;2.33;;
77531;SDS011;70100;44.486;0.266;2023-11-22T05:53:24;6.97;;;2.27;;
77531;SDS011;70100;44.486;0.266;2023-11-22T05:58:57;6.30;;;1.70;;
77531;SDS011;70100;44.486;0.266;2023-11-22T06:04:31;-1.00;;;-1.00;;
77531;SDS011;70100;44.486;0.266;2023-11-22T06:10:04;5.30;;;1.73;;
77531;SDS011;70100;44.486;0.266;2023-11-22T06:15:35;3.00;;;2.47;;
77531;SDS011;70100;44.486;0.266;2023-11-22T06:21:07;2.87;;;1.97;;
77531;SDS011;70100;44.486;0.266;2023-11-22T06:26:41;2.97;;;1.97;;
77531;SDS011;70100;44.486;0.266;2023-11-22T06:32:14;4.67;;;2.13;;
77531;SDS011;70100;44.486;0.266;2023-11-22T06:37:46;4.30;;;2.50;;
77531;SDS011;70100;44.486;0.266;2023-11-22T06:43:19;3.73;;;2.63;;
77531;SDS011;70100;44.486;0.266;2023-11-22T06:48:52;5.40;;;2.63;;
77531;SDS011;70100;44.486;0.266;2023-11-22T06:54:25;3.97;;;2.47;;
77531;SDS011;70100;44.486;0.266;2023-11-22T06:59:58;6.27;;;2.43;;
77531;SDS011;70100;44.486;0.266;2023-11-22T07:05:30;4.40;;;2.57;;
77531;SDS011;70100;44.486;0.266;2023-11-22T07:11:04;8.37;;;4.40;;
77531;SDS011;70100;44.486;0.266;2023-11-22T07:16:38;20.93;;;12.53;;
77531;SDS011;70100;44.486;0.266;2023-11-22T07:22:14;14.57;;;8.20;;
77531;SDS011;70100;44.486;0.266;2023-11-22T07:27:44;6.43;;;5.07;;
77531;SDS011;70100;44.486;0.266;2023-11-22T07:33:15;3.53;;;1.43;;
77531;SDS011;70100;44.486;0.266;2023-11-22T07:38:49;2.83;;;1.90;;
77531;SDS011;70100;44.486;0.266;2023-11-22T07:44:21;-1.00;;;-1.00;;
77531;SDS011;70100;44.486;0.266;2023-11-22T07:49:56;2.93;;;1.63;;
77531;SDS011;70100;44.486;0.266;2023-11-22T07:55:27;7.03;;;2.23;;
77531;SDS011;70100;44.486;0.266;2023-11-22T08:01:00;4.03;;;2.43;;
77531;SDS011;70100;44.486;0.266;2023-11-22T08:06:32;4.23;;;1.93;;
77531;SDS011;70100;44.486;0.266;2023-11-22T08:12:04;1.27;;;1.17;;
77531;SDS011;70100;44.486;0.266;2023-11-22T08:17:38;1.93;;;1.37;;
77531;SDS011;70100;44.486;0.266;2023-11-22T08:23:13;1.67;;;1.17;;
77531;SDS011;70100;44.486;0.266;2023-11-22T08:28:44;4.57;;;1.27;;
77531;SDS011;70100;44.486;0.266;2023-11-22T08:34:18;5.23;;;2.53;;
77531;SDS011;70100;44.486;0.266;2023-11-22T08:39:50;4.73;;;2.77;;
77531;SDS011;70100;44.486;0.266;2023-11-22T08:45:23;3.03;;;1.90;;
77531;SDS011;70100;44.486;0.266;2023-11-22T08:50:56;-1.00;;;-1.00;;
77531;SDS011;70100;44.486;0.266;2023-11-22T08:56:30;2.60;;;1.63;;
77531;SDS011;70100;44.486;0.266;2023-11-22T09:02:02;-1.00;;;-1.00;;
77531;SDS011;70100;44.486;0.266;2023-11-22T09:07:36;3.17;;;1.93;;
77531;SDS011;70100;44.486;0.266;2023-11-22T09:13:08;4.63;;;2.53;;
77531;SDS011;70100;44.486;0.266;2023-11-22T09:18:41;-1.00;;;-1.00;;
77531;SDS011;70100;44.486;0.266;2023-11-22T09:24:14;2.47;;;1.50;;
77531;SDS011;70100;44.486;0.266;2023-11-22T09:29:49;5.03;;;1.80;;
77531;SDS011;70100;44.486;0.266;2023-11-22T09:35:20;3.57;;;1.70;;
77531;SDS011;70100;44.486;0.266;2023-11-22T09:40:52;2.37;;;2.17;;
77531;SDS011;70100;44.486;0.266;2023-11-22T09:46:26;1.53;;;1.20;;
77531;SDS011;70100;44.486;0.266;2023-11-22T09:52:00;2.73;;;1.80;;
77531;SDS011;70100;44.486;0.266;2023-11-22T09:57:33;6.60;;;3.40;;
77531;SDS011;70100;44.486;0.266;2023-11-22T10:03:05;6.37;;;2.77;;
77531;SDS011;70100;44.486;0.266;2023-11-22T10:08:38;2.20;;;1.80;;
77531;SDS011;70100;44.486;0.266;2023-11-22T10:14:11;2.93;;;1.50;;
77531;SDS011;70100;44.486;0.266;2023-11-22T10:19:44;1.10;;;0.97;;
77531;SDS011;70100;44.486;0.266;2023-11-22T10:25:19;1.30;;;1.20;;
77531;SDS011;70100;44.486;0.266;2023-11-22T10:30:50;2.90;;;1.40;;
77531;SDS011;70100;44.486;0.266;2023-11-22T10:36:23;3.17;;;2.20;;
77531;SDS011;70100;44.486;0.266;2023-11-22T10:41:56;2.00;;;1.27;;
77531;SDS011;70100;44.486;0.266;2023-11-22T10:47:30;3.13;;;2.83;;
77531;SDS011;70100;44.486;0.266;2023-11-22T10:53:01;1.80;;;1.43;;
77531;SDS011;70100;44.486;0.266;2023-11-22T10:58:34;1.97;;;1.17;;
77531;SDS011;70100;44.486;0.266;2023-11-22T11:04:08;1.37;;;1.27;;
77531;SDS011;70100;44.486;0.266;2023-11-22T11:09:40;2.67;;;2.43;;
77531;SDS011;70100;44.486;0.266;2023-11-22T11:15:12;-1.00;;;-1.00;;
77531;SDS011;70100;44.486;0.266;2023-11-22T11:20:46;1.37;;;1.27;;
77531;SDS011;70100;44.486;0.266;2023-11-22T11:26:18;1.80;;;1.20;;
77531;SDS011;70100;44.486;0.266;2023-11-22T11:31:50;1.10;;;0.90;;
77531;SDS011;70100;44.486;0.266;2023-11-22T11:37:20;2.50;;;1.50;;
77531;SDS011;70100;44.486;0.266;2023-11-22T11:42:54;1.07;;;0.80;;
77531;SDS011;70100;44.486;0.266;2023-11-22T11:48:25;2.47;;;2.27;;
77531;SDS011;70100;44.486;0.266;2023-11-22T11:53:58;3.10;;;2.50;;
77531;SDS011;70100;44.486;0.266;2023-11-22T11:59:32;5.63;;;2.97;;
77531;SDS011;70100;44.486;0.266;2023-11-22T12:05:09;9.43;;;6.80;;
77531;SDS011;70100;44.486;0.266;2023-11-22T12:10:36;3.30;;;2.50;;
77531;SDS011;70100;44.486;0.266;2023-11-22T12:16:12;1.23;;;0.90;;
77531;SDS011;70100;44.486;0.266;2023-11-22T12:21:42;0.67;;;0.67;;
77531;SDS011;70100;44.486;0.266;2023-11-22T12:27:15;0.83;;;0.83;;
77531;SDS011;70100;44.486;0.266;2023-11-22T12:32:49;1.23;;;1.03;;
77531;SDS011;70100;44.486;0.266;2023-11-22T12:38:20;0.63;;;0.63;;
77531;SDS011;70100;44.486;0.266;2023-11-22T12:49:27;1.50;;;0.73;;
77531;SDS011;70100;44.486;0.266;2023-11-22T12:55:00;0.70;;;0.70;;
77531;SDS011;70100;44.486;0.266;2023-11-22T13:00:33;0.83;;;0.83;;
77531;SDS011;70100;44.486;0.266;2023-11-22T13:06:06;1.50;;;1.00;;
77531;SDS011;70100;44.486;0.266;2023-11-22T13:11:38;0.90;;;0.90;;
77531;SDS011;70100;44.486;0.266;2023-11-22T13:17:11;0.80;;;0.70;;
77531;SDS011;70100;44.486;0.266;2023-11-22T13:22:43;2.73;;;0.83;;
77531;SDS011;70100;44.486;0.266;2023-11-22T13:28:15;1.53;;;1.20;;
77531;SDS011;70100;44.486;0.266;2023-11-22T13:33:49;6.23;;;3.87;;
77531;SDS011;70100;44.486;0.266;2023-11-22T13:39:22;5.73;;;2.67;;
77531;SDS011;70100;44.486;0.266;2023-11-22T13:44:55;3.90;;;2.33;;
77531;SDS011;70100;44.486;0.266;2023-11-22T13:50:29;1.73;;;1.30;;
77531;SDS011;70100;44.486;0.266;2023-11-22T13:56:02;1.00;;;1.00;;
77531;SDS011;70100;44.486;0.266;2023-11-22T14:01:35;2.70;;;1.30;;
77531;SDS011;70100;44.486;0.266;2023-11-22T14:07:07;3.33;;;1.47;;
77531;SDS011;70100;44.486;0.266;2023-11-22T14:12:39;2.73;;;0.97;;
77531;SDS011;70100;44.486;0.266;2023-11-22T14:18:13;3.23;;;1.30;;
77531;SDS011;70100;44.486;0.266;2023-11-22T14:23:46;0.90;;;0.90;;
77531;SDS011;70100;44.486;0.266;2023-11-22T14:29:20;2.50;;;2.30;;
77531;SDS011;70100;44.486;0.266;2023-11-22T14:34:54;2.00;;;1.53;;
77531;SDS011;70100;44.486;0.266;2023-11-22T14:40:24;1.77;;;1.43;;
77531;SDS011;70100;44.486;0.266;2023-11-22T14:45:57;2.07;;;1.17;;
77531;SDS011;70100;44.486;0.266;2023-11-22T14:51:28;1.17;;;1.07;;
77531;SDS011;70100;44.486;0.266;2023-11-22T14:57:03;1.07;;;0.97;;
77531;SDS011;70100;44.486;0.266;2023-11-22T15:02:36;1.17;;;1.07;;
77531;SDS011;70100;44.486;0.266;2023-11-22T15:08:08;1.03;;;0.80;;
77531;SDS011;70100;44.486;0.266;2023-11-22T15:13:39;3.80;;;1.40;;
77531;SDS011;70100;44.486;0.266;2023-11-22T15:19:11;3.43;;;3.13;;
77531;SDS011;70100;44.486;0.266;2023-11-22T15:24:44;2.63;;;2.40;;
77531;SDS011;70100;44.486;0.266;2023-11-22T15:30:17;3.07;;;2.50;;
77531;SDS011;70100;44.486;0.266;2023-11-22T15:35:48;3.63;;;1.73;;
77531;SDS011;70100;44.486;0.266;2023-11-22T15:46:51;2.23;;;1.23;;
77531;SDS011;70100;44.486;0.266;2023-11-22T15:52:24;1.60;;;1.10;;
77531;SDS011;70100;44.486;0.266;2023-11-22T15:57:57;1.40;;;1.10;;
77531;SDS011;70100;44.486;0.266;2023-11-22T16:03:29;1.30;;;0.90;;
77531;SDS011;70100;44.486;0.266;2023-11-22T16:09:01;2.63;;;1.10;;
77531;SDS011;70100;44.486;0.266;2023-11-22T16:14:34;-1.00;;;-1.00;;
77531;SDS011;70100;44.486;0.266;2023-11-22T16:20:11;5.50;;;2.93;;
77531;SDS011;70100;44.486;0.266;2023-11-22T16:25:39;4.30;;;2.37;;
77531;SDS011;70100;44.486;0.266;2023-11-22T16:31:12;3.13;;;2.70;;
77531;SDS011;70100;44.486;0.266;2023-11-22T16:36:43;10.30;;;7.93;;
77531;SDS011;70100;44.486;0.266;2023-11-22T16:42:18;7.37;;;3.80;;
77531;SDS011;70100;44.486;0.266;2023-11-22T16:47:49;3.70;;;2.60;;
77531;SDS011;70100;44.486;0.266;2023-11-22T16:53:22;3.07;;;2.77;;
77531;SDS011;70100;44.486;0.266;2023-11-22T16:58:55;5.57;;;5.07;;
77531;SDS011;70100;44.486;0.266;2023-11-22T17:04:27;6.43;;;4.00;;
77531;SDS011;70100;44.486;0.266;2023-11-22T17:09:59;13.23;;;6.70;;
77531;SDS011;70100;44.486;0.266;2023-11-22T17:15:33;17.60;;;10.43;;
77531;SDS011;70100;44.486;0.266;2023-11-22T17:21:04;13.17;;;8.00;;
77531;SDS011;70100;44.486;0.266;2023-11-22T17:26:37;10.00;;;6.60;;
77531;SDS011;70100;44.486;0.266;2023-11-22T17:32:08;7.27;;;3.63;;
77531;SDS011;70100;44.486;0.266;2023-11-22T17:37:42;2.93;;;2.40;;
77531;SDS011;70100;44.486;0.266;2023-11-22T17:43:16;4.67;;;2.50;;
77531;SDS011;70100;44.486;0.266;2023-11-22T17:48:47;6.57;;;3.10;;
77531;SDS011;70100;44.486;0.266;2023-11-22T17:54:20;4.23;;;2.53;;
77531;SDS011;70100;44.486;0.266;2023-11-22T17:59:51;4.83;;;2.17;;
77531;SDS011;70100;44.486;0.266;2023-11-22T18:05:25;3.77;;;2.10;;
77531;SDS011;70100;44.486;0.266;2023-11-22T18:10:56;7.30;;;3.33;;
77531;SDS011;70100;44.486;0.266;2023-11-22T18:16:28;6.03;;;2.23;;
77531;SDS011;70100;44.486;0.266;2023-11-22T18:22:02;2.70;;;2.00;;
77531;SDS011;70100;44.486;0.266;2023-11-22T18:27:34;4.17;;;2.07;;
77531;SDS011;70100;44.486;0.266;2023-11-22T18:33:06;3.40;;;2.03;;
77531;SDS011;70100;44.486;0.266;2023-11-22T18:38:39;5.60;;;2.10;;
77531;SDS011;70100;44.486;0.266;2023-11-22T18:44:11;3.33;;;2.07;;
77531;SDS011;70100;44.486;0.266;2023-11-22T18:49:43;8.03;;;2.57;;
77531;SDS011;70100;44.486;0.266;2023-11-22T18:55:15;9.17;;;2.57;;
77531;SDS011;70100;44.486;0.266;2023-11-22T19:00:47;5.60;;;2.70;;
77531;SDS011;70100;44.486;0.266;2023-11-22T19:06:21;4.23;;;3.63;;
77531;SDS011;70100;44.486;0.266;2023-11-22T19:11:53;8.97;;;5.60;;
77531;SDS011;70100;44.486;0.266;2023-11-22T19:17:25;7.33;;;4.07;;
77531;SDS011;70100;44.486;0.266;2023-11-22T19:22:59;5.13;;;3.83;;
77531;SDS011;70100;44.486;0.266;2023-11-22T19:28:30;3.60;;;2.00;;
77531;SDS011;70100;44.486;0.266;2023-11-22T19:34:02;5.83;;;2.97;;
77531;SDS011;70100;44.486;0.266;2023-11-22T19:39:35;6.03;;;2.97;;
77531;SDS011;70100;44.486;0.266;2023-11-22T19:45:08;5.83;;;3.10;;
77531;SDS011;70100;44.486;0.266;2023-11-22T19:50:40;5.87;;;3.90;;
77531;SDS011;70100;44.486;0.266;2023-11-22T19:56:13;3.83;;;2.70;;
77531;SDS011;70100;44.486;0.266;2023-11-22T20:01:46;7.33;;;3.57;;
77531;SDS011;70100;44.486;0.266;2023-11-22T20:07:19;5.37;;;3.50;;
77531;SDS011;70100;44.486;0.266;2023-11-22T20:12:52;-1.00;;;-1.00;;
77531;SDS011;70100;44.486;0.266;2023-11-22T20:18:26;5.47;;;3.97;;
77531;SDS011;70100;44.486;0.266;2023-11-22T20:23:58;9.40;;;5.17;;
77531;SDS011;70100;44.486;0.266;2023-11-22T20:29:32;8.23;;;3.77;;
77531;SDS011;70100;44.486;0.266;2023-11-22T20:35:04;7.30;;;3.70;;
77531;SDS011;70100;44.486;0.266;2023-11-22T20:40:37;6.57;;;3.90;;
77531;SDS011;70100;44.486;0.266;2023-11-22T20:46:09;5.90;;;2.60;;
77531;SDS011;70100;44.486;0.266;2023-11-22T20:51:43;16.73;;;8.83;;
77531;SDS011;70100;44.486;0.266;2023-11-22T20:57:15;6.23;;;3.30;;
77531;SDS011;70100;44.486;0.266;2023-11-22T21:02:48;8.43;;;4.20;;
77531;SDS011;70100;44.486;0.266;2023-11-22T21:08:20;6.63;;;5.10;;
77531;SDS011;70100;44.486;0.266;2023-11-22T21:13:52;9.93;;;4.93;;
77531;SDS011;70100;44.486;0.266;2023-11-22T21:19:24;9.20;;;5.57;;
77531;SDS011;70100;44.486;0.266;2023-11-22T21:24:58;7.33;;;4.27;;
77531;SDS011;70100;44.486;0.266;2023-11-22T21:30:31;7.63;;;4.00;;
77531;SDS011;70100;44.486;0.266;2023-11-22T21:36:03;8.17;;;5.47;;
77531;SDS011;70100;44.486;0.266;2023-11-22T21:41:35;7.60;;;5.80;;
77531;SDS011;70100;44.486;0.266;2023-11-22T21:47:07;6.53;;;3.93;;
77531;SDS011;70100;44.486;0.266;2023-11-22T21:52:40;-1.00;;;-1.00;;
77531;SDS011;70100;44.486;0.266;2023-11-22T21:58:14;8.77;;;4.50;;
77531;SDS011;70100;44.486;0.266;2023-11-22T22:09:20;11.93;;;6.77;;
77531;SDS011;70100;44.486;0.266;2023-11-22T22:14:51;12.17;;;6.23;;
77531;SDS011;70100;44.486;0.266;2023-11-22T22:20:25;12.50;;;6.37;;
77531;SDS011;70100;44.486;0.266;2023-11-22T22:25:55;9.50;;;5.13;;
77531;SDS011;70100;44.486;0.266;2023-11-22T22:31:27;13.37;;;5.83;;
77531;SDS011;70100;44.486;0.266;2023-11-22T22:37:00;22.07;;;7.07;;
77531;SDS011;70100;44.486;0.266;2023-11-22T22:42:32;20.57;;;7.53;;
77531;SDS011;70100;44.486;0.266;2023-11-22T22:48:06;13.47;;;6.37;;
77531;SDS011;70100;44.486;0.266;2023-11-22T22:53:38;12.43;;;6.20;;
77531;SDS011;70100;44.486;0.266;2023-11-22T22:59:11;11.63;;;5.87;;
77531;SDS011;70100;44.486;0.266;2023-11-22T23:04:44;34.60;;;14.70;;
77531;SDS011;70100;44.486;0.266;2023-11-22T23:10:18;30.30;;;12.27;;
77531;SDS011;70100;44.486;0.266;2023-11-22T23:15:49;32.83;;;13.47;;
77531;SDS011;70100;44.486;0.266;2023-11-22T23:21:22;26.50;;;11.40;;
77531;SDS011;70100;44.486;0.266;2023-11-22T23:26:53;21.33;;;8.40;;
77531;SDS011;70100;44.486;0.266;2023-11-22T23:32:27;29.80;;;12.70;;
77531;SDS011;70100;44.486;0.266;2023-11-22T23:43:35;19.17;;;8.50;;
77531;SDS011;70100;44.486;0.266;2023-11-22T23:49:06;12.60;;;5.70;;
77531;SDS011;70100;44.486;0.266;2023-11-22T23:54:38;11.70;;;5.90;;
